createdAt,value
2022-11-29T05:48:21.965Z,88.39
2022-11-29T05:53:35.316Z,88.42
2022-11-29T05:58:56.805Z,88.18
2022-11-29T06:04:04.580Z,88.13
2022-11-29T06:09:17.685Z,88.28
2022-11-29T06:14:41.499Z,88.19
2022-11-29T06:20:13.364Z,87.90
2022-11-29T06:25:17.118Z,87.85
2022-11-29T06:30:30.046Z,87.64
2022-11-29T06:35:45.844Z,87.75
2022-11-29T06:40:48.723Z,87.55
2022-11-29T06:45:54.230Z,87.68
2022-11-29T06:51:08.536Z,87.73
2022-11-29T06:56:25.346Z,87.49
2022-11-29T07:01:30.360Z,87.34
2022-11-29T07:06:35.084Z,87.08
2022-11-29T07:11:37.663Z,87.06
2022-11-29T07:17:09.503Z,86.70
2022-11-29T07:22:24.889Z,86.61
2022-11-29T07:27:42.071Z,86.28
2022-11-29T07:33:12.089Z,85.84
2022-11-29T07:38:20.149Z,85.78
2022-11-29T07:43:52.713Z,86.07
2022-11-29T07:48:55.147Z,85.41
2022-11-29T07:53:57.204Z,85.19
2022-11-29T07:58:59.341Z,85.12
2022-11-29T08:04:01.391Z,85.20
2022-11-29T08:09:03.950Z,84.93
2022-11-29T08:14:06.328Z,84.98
2022-11-29T08:19:08.313Z,84.44
2022-11-29T08:24:10.458Z,84.24
2022-11-29T08:29:12.551Z,84.16
2022-11-29T08:34:14.558Z,84.14
2022-11-29T08:39:17.083Z,84.56
2022-11-29T08:44:19.116Z,84.19
2022-11-29T08:49:21.297Z,83.98
2022-11-29T08:54:23.313Z,83.66
2022-11-29T08:59:25.306Z,83.25
2022-11-29T09:04:27.365Z,83.26
2022-11-29T09:09:29.413Z,82.78
2022-11-29T09:14:31.497Z,82.76
2022-11-29T09:19:33.562Z,83.19
2022-11-29T09:24:35.585Z,83.30
2022-11-29T09:29:37.870Z,83.55
2022-11-29T09:34:42.266Z,83.58
2022-11-29T09:39:44.851Z,83.54
2022-11-29T09:45:09.988Z,83.51
2022-11-29T09:50:30.613Z,83.34
2022-11-29T09:56:04.165Z,83.15
2022-11-29T10:01:10.913Z,83.12
2022-11-29T10:06:36.750Z,82.06
2022-11-29T10:11:42.197Z,81.37
2022-11-29T10:16:52.766Z,81.27
2022-11-29T10:22:01.970Z,81.49
2022-11-29T10:27:14.015Z,82.11
2022-11-29T10:32:16.741Z,82.00
2022-11-29T10:37:21.510Z,81.87
2022-11-29T10:42:44.855Z,81.01
2022-11-29T10:47:50.134Z,80.58
2022-11-29T10:52:59.872Z,80.86
2022-11-29T10:58:13.102Z,81.46
2022-11-29T11:03:23.903Z,81.67
2022-11-29T11:08:27.657Z,81.84
2022-11-29T11:13:31.934Z,81.81
2022-11-29T11:18:34.298Z,82.14
2022-11-29T11:23:42.884Z,81.99
2022-11-29T11:29:00.271Z,82.09
2022-11-29T11:34:35.156Z,82.17
2022-11-29T11:39:37.179Z,81.94
2022-11-29T11:44:49.430Z,82.02
2022-11-29T11:50:00.352Z,81.83
2022-11-29T11:55:07.134Z,81.92
2022-11-29T12:01:02.959Z,82.23
2022-11-29T12:06:14.816Z,82.37
2022-11-29T12:11:18.755Z,82.65
2022-11-29T12:16:34.577Z,82.81
2022-11-29T12:21:42.379Z,83.12
2022-11-29T12:27:00.535Z,83.18
2022-11-29T12:32:24.677Z,83.19
2022-11-29T12:37:39.910Z,83.34
2022-11-29T12:43:10.832Z,83.51
2022-11-29T12:48:28.128Z,83.35
2022-11-29T12:53:57.814Z,83.39
2022-11-29T12:59:20.846Z,83.39
2022-11-29T13:04:59.872Z,83.45
2022-11-29T13:10:21.135Z,83.31
2022-11-29T13:16:01.228Z,83.14
2022-11-29T13:21:20.174Z,83.12
2022-11-29T13:26:25.666Z,83.25
2022-11-29T13:31:28.188Z,83.06
2022-11-29T13:37:06.640Z,82.71
2022-11-29T13:42:45.451Z,82.63
2022-11-29T13:47:56.057Z,82.79
2022-11-29T13:53:04.519Z,82.77
2022-11-29T13:58:19.080Z,83.03
2022-11-29T14:03:24.032Z,83.06
2022-11-29T14:09:02.391Z,83.04
2022-11-29T14:14:07.587Z,83.19
2022-11-29T14:19:09.929Z,83.81
2022-11-29T14:24:36.977Z,83.04
2022-11-29T14:29:50.943Z,82.62
2022-11-29T14:35:11.472Z,82.83
2022-11-29T14:40:26.611Z,83.19
2022-11-29T14:45:35.196Z,83.37
2022-11-29T14:50:40.423Z,83.42
2022-11-29T14:55:43.019Z,83.49
2022-11-29T15:00:47.685Z,83.37
2022-11-29T15:06:12.212Z,83.64
2022-11-29T15:11:33.905Z,83.85
2022-11-29T15:17:07.260Z,84.04
2022-11-29T15:22:27.661Z,84.11
2022-11-29T15:27:29.704Z,84.07
2022-11-29T15:32:32.702Z,83.94
2022-11-29T15:37:35.501Z,83.70
2022-11-29T15:42:57.980Z,83.55
2022-11-29T15:48:16.135Z,83.43
2022-11-29T15:53:38.806Z,83.31
2022-11-29T15:58:41.254Z,83.49
2022-11-29T16:03:46.362Z,83.91
2022-11-29T16:08:49.973Z,84.14
2022-11-29T16:14:03.263Z,84.27
2022-11-29T16:19:30.458Z,84.22
2022-11-29T16:24:34.587Z,84.22
2022-11-29T16:29:41.558Z,84.20
2022-11-29T16:34:44.750Z,84.52
2022-11-29T16:39:49.645Z,84.45
2022-11-29T16:44:58.144Z,84.44
2022-11-29T16:50:03.050Z,84.33
2022-11-29T16:55:05.298Z,84.74
2022-11-29T17:00:23.224Z,84.72
2022-11-29T17:05:25.982Z,84.63
2022-11-29T17:10:28.870Z,84.75
2022-11-29T17:15:30.953Z,84.76
2022-11-29T17:20:33.871Z,84.76
2022-11-29T17:25:36.243Z,84.90
2022-11-29T17:30:38.277Z,84.69
2022-11-29T17:35:40.293Z,84.83
2022-11-29T17:40:42.496Z,85.01
2022-11-29T17:45:44.532Z,85.04
2022-11-29T17:50:46.646Z,84.97
2022-11-29T17:55:48.806Z,84.87
2022-11-29T18:00:50.876Z,84.92
2022-11-29T18:05:52.898Z,84.95
2022-11-29T18:11:09.934Z,84.56
2022-11-29T18:16:17.901Z,84.54
2022-11-29T18:21:19.937Z,84.60
2022-11-29T18:26:24.146Z,84.66
2022-11-29T18:31:28.978Z,84.75
2022-11-29T18:36:34.121Z,84.84
2022-11-29T18:41:37.815Z,84.99
2022-11-29T18:46:43.034Z,85.00
2022-11-29T18:51:46.310Z,85.07
2022-11-29T18:56:50.728Z,85.09
2022-11-29T19:01:52.899Z,84.97
2022-11-29T19:06:54.967Z,85.14
2022-11-29T19:11:56.999Z,85.17
2022-11-29T19:16:59.049Z,85.28
2022-11-29T19:22:01.064Z,85.30
2022-11-29T19:27:04.663Z,85.26
2022-11-29T19:32:08.506Z,85.44
2022-11-29T19:37:10.582Z,85.26
2022-11-29T19:42:12.762Z,85.15
2022-11-29T19:47:14.776Z,85.29
2022-11-29T19:52:16.838Z,85.49
2022-11-29T19:57:18.826Z,85.58
